Time;durP1;ratioP1;P1;durP2;ratioP2;P2;SDS_P1;SDS_P2;PMS_P1;PMS_P2;Temp;Humidity;BMP_temperature;BMP_pressure;BME280_temperature;BME280_humidity;BME280_pressure;Samples;Min_cycle;Max_cycle;Signal;HPM_P1;HPM_P2
2024/02/29 00:02:25;;;;;;;38.72;16.15;;;;;;;;;;5075102;28;20049;-61
2024/02/29 00:04:51;;;;;;;38.20;15.07;;;;;;;;;;5082953;28;20504;-61
2024/02/29 00:07:18;;;;;;;40.22;15.55;;;;;;;;;;5072617;28;20136;-61
2024/02/29 00:09:44;;;;;;;48.58;16.55;;;;;;;;;;5088059;28;20036;-62
2024/02/29 00:12:10;;;;;;;44.13;16.55;;;;;;;;;;5080965;28;20051;-61
2024/02/29 00:14:37;;;;;;;46.00;16.70;;;;;;;;;;5083970;28;20450;-61
2024/02/29 00:17:03;;;;;;;55.42;18.65;;;;;;;;;;5062158;28;20044;-61
2024/02/29 00:19:31;;;;;;;53.78;19.63;;;;;;;;;;5081108;28;20048;-61
2024/02/29 00:21:57;;;;;;;58.30;20.02;;;;;;;;;;5077879;28;20036;-61
2024/02/29 00:24:23;;;;;;;70.68;23.23;;;;;;;;;;5074880;28;20473;-62
2024/02/29 00:26:49;;;;;;;73.25;22.95;;;;;;;;;;5083347;28;20044;-61
2024/02/29 00:29:15;;;;;;;69.28;23.52;;;;;;;;;;5070979;28;20052;-62
2024/02/29 00:31:44;;;;;;;66.22;23.52;;;;;;;;;;5080450;28;20047;-63
2024/02/29 00:34:13;;;;;;;68.40;23.70;;;;;;;;;;5076261;28;20043;-62
2024/02/29 00:36:39;;;;;;;82.73;25.07;;;;;;;;;;5076147;28;20060;-62
2024/02/29 00:39:07;;;;;;;75.68;25.27;;;;;;;;;;5076233;28;20078;-62
2024/02/29 00:41:34;;;;;;;76.35;23.48;;;;;;;;;;5078147;28;20060;-62
2024/02/29 00:44:00;;;;;;;74.18;23.75;;;;;;;;;;5083245;28;20396;-62
2024/02/29 00:46:26;;;;;;;70.55;24.55;;;;;;;;;;5079058;28;20051;-62
2024/02/29 00:48:55;;;;;;;73.13;25.70;;;;;;;;;;5072992;28;20509;-62
2024/02/29 00:51:21;;;;;;;75.85;23.83;;;;;;;;;;5073957;28;20051;-61
2024/02/29 00:53:47;;;;;;;72.93;24.77;;;;;;;;;;5077255;28;20059;-60
2024/02/29 00:56:13;;;;;;;72.20;23.75;;;;;;;;;;5078896;28;20048;-62
2024/02/29 00:58:39;;;;;;;78.18;23.95;;;;;;;;;;5075357;28;20044;-60
2024/02/29 01:01:05;;;;;;;71.90;24.00;;;;;;;;;;5084070;28;20050;-62
2024/02/29 01:03:31;;;;;;;73.88;24.38;;;;;;;;;;5078508;28;20052;-61
2024/02/29 01:05:58;;;;;;;71.32;24.20;;;;;;;;;;5070853;28;20056;-61
2024/02/29 01:08:24;;;;;;;75.07;24.10;;;;;;;;;;5084570;28;20048;-61
2024/02/29 01:10:50;;;;;;;71.57;23.67;;;;;;;;;;5083387;28;20036;-60
2024/02/29 01:13:16;;;;;;;74.38;25.23;;;;;;;;;;5093456;28;20044;-61
2024/02/29 01:15:42;;;;;;;75.75;26.05;;;;;;;;;;5089537;28;20040;-61
2024/02/29 01:18:08;;;;;;;78.38;26.05;;;;;;;;;;5085614;28;20047;-61
2024/02/29 01:20:34;;;;;;;72.63;25.35;;;;;;;;;;5084702;28;20408;-60
2024/02/29 01:23:00;;;;;;;70.70;23.80;;;;;;;;;;5073298;28;20036;-61
2024/02/29 01:25:27;;;;;;;80.03;26.15;;;;;;;;;;5086697;28;20052;-61
2024/02/29 01:27:53;;;;;;;74.90;25.88;;;;;;;;;;5084054;28;20044;-61
2024/02/29 01:30:19;;;;;;;69.10;23.40;;;;;;;;;;5082729;28;20056;-61
2024/02/29 01:32:45;;;;;;;65.60;24.52;;;;;;;;;;5084090;28;20035;-60
2024/02/29 01:35:12;;;;;;;65.38;22.42;;;;;;;;;;5084525;28;20233;-60
2024/02/29 01:37:38;;;;;;;70.90;21.48;;;;;;;;;;5084248;28;20055;-61
2024/02/29 01:40:04;;;;;;;66.97;22.42;;;;;;;;;;5085220;28;20043;-61
2024/02/29 01:42:31;;;;;;;64.45;20.48;;;;;;;;;;5086143;28;20043;-61
2024/02/29 01:44:57;;;;;;;66.88;22.77;;;;;;;;;;5090240;28;20081;-60
2024/02/29 01:47:24;;;;;;;70.38;21.95;;;;;;;;;;5085647;28;20055;-60
2024/02/29 01:49:55;;;;;;;62.90;21.52;;;;;;;;;;5086341;28;20054;-60
2024/02/29 01:52:23;;;;;;;62.58;21.73;;;;;;;;;;5079701;28;20520;-61
2024/02/29 01:54:49;;;;;;;68.63;21.05;;;;;;;;;;5085748;28;20508;-60
2024/02/29 01:57:15;;;;;;;70.32;22.48;;;;;;;;;;5088900;28;20048;-61
2024/02/29 01:59:42;;;;;;;74.20;24.00;;;;;;;;;;5092950;28;20071;-60
2024/02/29 02:02:08;;;;;;;69.43;23.17;;;;;;;;;;5087003;28;20409;-60
2024/02/29 02:04:34;;;;;;;66.53;21.88;;;;;;;;;;5094552;28;20051;-60
2024/02/29 02:07:03;;;;;;;72.60;22.40;;;;;;;;;;5082481;28;20146;-60
2024/02/29 02:09:29;;;;;;;74.03;23.20;;;;;;;;;;5086438;28;20075;-61
2024/02/29 02:11:56;;;;;;;74.95;22.83;;;;;;;;;;5080402;28;20032;-60
2024/02/29 02:14:22;;;;;;;69.80;23.52;;;;;;;;;;5092158;28;20051;-61
2024/02/29 02:16:49;;;;;;;73.95;22.88;;;;;;;;;;5094513;28;20039;-60
2024/02/29 02:19:16;;;;;;;64.07;21.98;;;;;;;;;;5092470;28;20031;-59
2024/02/29 02:21:46;;;;;;;68.13;23.70;;;;;;;;;;5086904;28;20138;-61
2024/02/29 02:24:12;;;;;;;73.22;24.00;;;;;;;;;;5081129;28;20140;-61
2024/02/29 02:26:38;;;;;;;70.20;23.30;;;;;;;;;;5084846;28;20045;-61
2024/02/29 02:29:06;;;;;;;76.22;24.45;;;;;;;;;;5079645;28;20052;-61
2024/02/29 02:31:32;;;;;;;73.18;24.20;;;;;;;;;;5086851;28;20056;-61
2024/02/29 02:33:58;;;;;;;75.68;23.67;;;;;;;;;;5090136;28;20408;-61
2024/02/29 02:36:24;;;;;;;74.70;22.00;;;;;;;;;;5088380;28;20044;-61
2024/02/29 02:38:51;;;;;;;69.15;22.90;;;;;;;;;;5090599;28;20067;-61
2024/02/29 02:41:17;;;;;;;79.00;24.88;;;;;;;;;;5089994;28;20043;-61
2024/02/29 02:43:49;;;;;;;76.63;24.67;;;;;;;;;;5085559;28;20059;-61
2024/02/29 02:46:16;;;;;;;76.22;23.90;;;;;;;;;;5082816;28;20043;-60
2024/02/29 02:48:42;;;;;;;76.47;24.55;;;;;;;;;;5078300;28;20048;-61
2024/02/29 02:51:08;;;;;;;80.53;26.45;;;;;;;;;;5078050;28;20036;-60
2024/02/29 02:53:34;;;;;;;75.97;23.88;;;;;;;;;;5081425;28;20054;-60
2024/02/29 02:56:01;;;;;;;80.32;26.20;;;;;;;;;;5086281;28;20047;-60
2024/02/29 02:58:27;;;;;;;75.22;23.88;;;;;;;;;;5081587;28;20051;-61
2024/02/29 03:00:53;;;;;;;81.07;25.92;;;;;;;;;;5087586;28;20062;-61
2024/02/29 03:03:19;;;;;;;81.72;25.13;;;;;;;;;;5083973;28;20036;-60
2024/02/29 03:05:45;;;;;;;77.15;25.73;;;;;;;;;;5091282;28;20049;-61
2024/02/29 03:08:11;;;;;;;73.93;25.25;;;;;;;;;;5085708;28;20135;-61
2024/02/29 03:10:37;;;;;;;79.57;25.10;;;;;;;;;;5089276;28;20476;-61
2024/02/29 03:13:03;;;;;;;73.10;23.80;;;;;;;;;;5090875;28;20047;-61
2024/02/29 03:15:29;;;;;;;70.28;25.30;;;;;;;;;;5090331;28;20392;-61
2024/02/29 03:17:56;;;;;;;77.45;24.95;;;;;;;;;;5081168;28;20044;-61
2024/02/29 03:20:22;;;;;;;76.43;26.30;;;;;;;;;;5088516;28;20393;-61
2024/02/29 03:22:48;;;;;;;81.93;25.17;;;;;;;;;;5083096;28;20039;-61
2024/02/29 03:25:14;;;;;;;72.95;24.10;;;;;;;;;;5083125;28;20055;-61
2024/02/29 03:27:40;;;;;;;79.65;24.13;;;;;;;;;;5086664;28;20048;-62
2024/02/29 03:30:07;;;;;;;77.93;25.15;;;;;;;;;;5075973;28;20060;-61
2024/02/29 03:32:33;;;;;;;79.32;23.85;;;;;;;;;;5087644;28;20043;-61
2024/02/29 03:35:02;;;;;;;78.00;23.85;;;;;;;;;;5088075;28;20401;-61
2024/02/29 03:37:28;;;;;;;71.35;24.20;;;;;;;;;;5087279;28;20040;-61
2024/02/29 03:39:54;;;;;;;69.18;22.83;;;;;;;;;;5089224;28;20402;-61
2024/02/29 03:42:20;;;;;;;68.57;23.45;;;;;;;;;;5082200;28;20437;-60
2024/02/29 03:44:46;;;;;;;65.53;21.80;;;;;;;;;;5046445;28;20043;-62
2024/02/29 03:47:12;;;;;;;74.28;22.40;;;;;;;;;;5075348;28;20397;-61
2024/02/29 03:49:38;;;;;;;71.80;23.30;;;;;;;;;;5075112;28;20055;-61
2024/02/29 03:52:05;;;;;;;67.78;21.40;;;;;;;;;;5072993;28;20481;-61
2024/02/29 03:54:31;;;;;;;73.90;22.50;;;;;;;;;;5073490;28;20067;-60
2024/02/29 03:56:57;;;;;;;61.17;21.38;;;;;;;;;;5074951;28;20048;-61
2024/02/29 03:59:24;;;;;;;62.65;20.38;;;;;;;;;;5079308;28;20056;-61
2024/02/29 04:01:50;;;;;;;71.15;21.88;;;;;;;;;;5082883;28;20078;-61
2024/02/29 04:04:18;;;;;;;66.60;22.48;;;;;;;;;;5081976;28;20052;-61
2024/02/29 04:06:44;;;;;;;68.57;21.63;;;;;;;;;;5083676;28;20036;-61
2024/02/29 04:09:11;;;;;;;67.15;22.63;;;;;;;;;;5080248;28;20489;-61
2024/02/29 04:11:38;;;;;;;65.20;21.83;;;;;;;;;;5076630;28;20048;-61
2024/02/29 04:14:04;;;;;;;61.53;22.30;;;;;;;;;;5084412;28;20381;-61
2024/02/29 04:16:38;;;;;;;65.75;20.90;;;;;;;;;;5086769;28;20048;-61
2024/02/29 04:19:05;;;;;;;59.85;20.60;;;;;;;;;;5076380;28;20040;-61
2024/02/29 04:21:34;;;;;;;65.57;21.13;;;;;;;;;;5080453;28;20386;-60
2024/02/29 04:24:01;;;;;;;65.05;20.92;;;;;;;;;;5074539;28;20067;-61
2024/02/29 04:26:28;;;;;;;61.95;19.95;;;;;;;;;;5080446;28;20036;-62
2024/02/29 04:28:54;;;;;;;59.80;19.65;;;;;;;;;;5080967;28;20032;-60
2024/02/29 04:31:21;;;;;;;61.95;19.63;;;;;;;;;;5077935;28;20413;-61
2024/02/29 04:33:47;;;;;;;60.85;19.92;;;;;;;;;;5087911;28;20035;-64
2024/02/29 04:36:13;;;;;;;57.88;20.33;;;;;;;;;;5090150;28;20040;-62
2024/02/29 04:38:39;;;;;;;61.88;20.83;;;;;;;;;;5082922;28;20032;-62
2024/02/29 04:41:05;;;;;;;58.67;19.30;;;;;;;;;;5082313;28;20507;-60
2024/02/29 04:43:31;;;;;;;62.80;20.92;;;;;;;;;;5088642;28;20408;-61
2024/02/29 04:45:58;;;;;;;61.15;20.73;;;;;;;;;;5078561;28;20045;-60
2024/02/29 04:48:25;;;;;;;68.45;21.95;;;;;;;;;;5086273;28;20052;-61
2024/02/29 04:50:52;;;;;;;71.07;22.13;;;;;;;;;;5087943;28;20370;-61
2024/02/29 04:53:18;;;;;;;65.30;22.65;;;;;;;;;;5083842;28;20044;-60
2024/02/29 04:55:44;;;;;;;63.90;24.05;;;;;;;;;;5083986;28;20040;-60
2024/02/29 04:58:10;;;;;;;68.60;22.15;;;;;;;;;;5088235;28;20048;-60
2024/02/29 05:00:36;;;;;;;61.13;20.48;;;;;;;;;;5083086;28;20044;-61
2024/02/29 05:03:02;;;;;;;64.25;20.85;;;;;;;;;;5077386;28;20350;-62
2024/02/29 05:05:29;;;;;;;69.00;22.35;;;;;;;;;;5081254;28;20052;-60
2024/02/29 05:07:55;;;;;;;59.90;20.95;;;;;;;;;;5079653;28;20043;-61
2024/02/29 05:10:22;;;;;;;68.72;22.67;;;;;;;;;;5076624;28;20036;-60
2024/02/29 05:12:50;;;;;;;62.78;22.17;;;;;;;;;;5079923;28;20020;-61
2024/02/29 05:15:22;;;;;;;55.13;19.80;;;;;;;;;;5080788;28;20048;-61
2024/02/29 05:17:49;;;;;;;56.72;19.55;;;;;;;;;;5080588;28;20397;-60
2024/02/29 05:20:16;;;;;;;66.32;21.10;;;;;;;;;;5078770;28;20351;-60
2024/02/29 05:23:00;;;;;;;60.17;22.50;;;;;;;;;;5079106;28;20036;-60
2024/02/29 05:25:42;;;;;;;75.57;23.52;;;;;;;;;;5080018;28;20044;-61
2024/02/29 05:28:08;;;;;;;76.03;24.25;;;;;;;;;;5078052;28;20028;-61
2024/02/29 05:30:34;;;;;;;73.35;22.75;;;;;;;;;;5076052;28;20049;-60
2024/02/29 05:33:00;;;;;;;70.72;23.17;;;;;;;;;;5079927;28;20036;-61
2024/02/29 05:35:26;;;;;;;69.90;23.23;;;;;;;;;;5076469;28;20050;-60
2024/02/29 05:37:52;;;;;;;63.47;21.88;;;;;;;;;;5083844;28;20051;-62
2024/02/29 05:40:18;;;;;;;66.80;22.52;;;;;;;;;;5075716;28;20056;-61
2024/02/29 05:42:44;;;;;;;65.47;23.88;;;;;;;;;;5077498;28;20055;-61
2024/02/29 05:45:11;;;;;;;62.97;24.40;;;;;;;;;;5069499;28;20055;-62
2024/02/29 05:47:37;;;;;;;70.18;24.38;;;;;;;;;;5074411;28;20043;-61
2024/02/29 05:50:04;;;;;;;63.83;22.15;;;;;;;;;;5080601;28;20116;-61
2024/02/29 05:52:30;;;;;;;70.35;24.92;;;;;;;;;;5079108;28;20044;-61
2024/02/29 05:54:56;;;;;;;69.20;22.63;;;;;;;;;;5075311;28;20417;-61
2024/02/29 05:57:24;;;;;;;61.50;22.48;;;;;;;;;;5080595;28;20040;-62
2024/02/29 05:59:50;;;;;;;65.30;22.60;;;;;;;;;;5084546;28;20044;-61
2024/02/29 06:02:16;;;;;;;66.25;22.55;;;;;;;;;;5083987;28;20029;-61
2024/02/29 06:04:42;;;;;;;64.22;21.83;;;;;;;;;;5078076;28;20060;-61
2024/02/29 06:07:08;;;;;;;66.07;21.35;;;;;;;;;;5080150;28;20049;-59
2024/02/29 06:09:35;;;;;;;70.47;22.40;;;;;;;;;;5083610;28;20028;-58
2024/02/29 06:12:01;;;;;;;55.95;19.33;;;;;;;;;;5081719;28;20520;-57
2024/02/29 06:14:27;;;;;;;67.75;23.13;;;;;;;;;;5075663;28;20047;-58
2024/02/29 06:16:54;;;;;;;56.20;19.60;;;;;;;;;;5078394;28;20442;-58
2024/02/29 06:19:20;;;;;;;64.43;22.42;;;;;;;;;;5080846;28;20044;-58
2024/02/29 06:21:46;;;;;;;59.50;22.17;;;;;;;;;;5080194;28;20059;-58
2024/02/29 06:24:18;;;;;;;57.25;20.13;;;;;;;;;;5080651;28;20048;-58
2024/02/29 06:26:46;;;;;;;63.35;22.27;;;;;;;;;;5081479;28;20032;-58
2024/02/29 06:29:12;;;;;;;66.10;22.85;;;;;;;;;;5083142;28;20039;-58
2024/02/29 06:31:41;;;;;;;65.30;25.52;;;;;;;;;;5076619;28;20048;-58
2024/02/29 06:34:07;;;;;;;76.53;27.95;;;;;;;;;;5079338;28;20051;-58
2024/02/29 06:36:34;;;;;;;76.35;25.83;;;;;;;;;;5079193;28;20470;-59
2024/02/29 06:39:00;;;;;;;67.25;24.30;;;;;;;;;;5075116;28;20040;-59
2024/02/29 06:41:28;;;;;;;73.68;26.58;;;;;;;;;;5075516;28;20043;-59
2024/02/29 06:43:54;;;;;;;69.07;24.42;;;;;;;;;;5079450;28;20059;-59
2024/02/29 06:46:20;;;;;;;75.97;26.90;;;;;;;;;;5078996;28;20044;-59
2024/02/29 06:48:46;;;;;;;69.68;24.42;;;;;;;;;;5084588;28;20044;-59
2024/02/29 06:51:15;;;;;;;64.63;22.27;;;;;;;;;;5078299;28;20033;-59
2024/02/29 06:53:41;;;;;;;66.95;22.10;;;;;;;;;;5081828;28;20033;-59
2024/02/29 06:56:07;;;;;;;75.00;25.42;;;;;;;;;;5080598;28;20395;-59
2024/02/29 06:58:35;;;;;;;68.53;24.83;;;;;;;;;;5075834;28;20191;-59
2024/02/29 07:01:02;;;;;;;81.25;27.02;;;;;;;;;;5087978;28;20027;-59
2024/02/29 07:03:29;;;;;;;73.95;24.45;;;;;;;;;;5078957;28;20032;-59
2024/02/29 07:05:55;;;;;;;79.47;26.00;;;;;;;;;;5076286;28;20041;-59
2024/02/29 07:08:21;;;;;;;69.50;25.90;;;;;;;;;;5086302;28;20036;-59
2024/02/29 07:10:48;;;;;;;76.13;25.02;;;;;;;;;;5084518;28;20048;-59
2024/02/29 07:13:14;;;;;;;80.53;25.92;;;;;;;;;;5082249;28;20579;-59
2024/02/29 07:15:40;;;;;;;66.40;23.45;;;;;;;;;;5077886;28;20389;-58
2024/02/29 07:18:08;;;;;;;75.80;24.88;;;;;;;;;;5079413;28;20039;-59
2024/02/29 07:20:34;;;;;;;71.20;24.73;;;;;;;;;;5081413;28;20051;-60
2024/02/29 07:23:01;;;;;;;74.85;25.83;;;;;;;;;;5082977;28;20477;-59
2024/02/29 07:25:28;;;;;;;69.75;24.58;;;;;;;;;;5082115;28;20386;-59
2024/02/29 07:27:56;;;;;;;69.00;23.70;;;;;;;;;;5082444;28;20047;-58
2024/02/29 07:30:27;;;;;;;81.95;24.10;;;;;;;;;;5079653;28;20477;-59
2024/02/29 07:32:53;;;;;;;67.65;24.15;;;;;;;;;;5082998;28;20040;-59
2024/02/29 07:35:19;;;;;;;74.88;26.17;;;;;;;;;;5086077;28;20382;-60
2024/02/29 07:37:45;;;;;;;64.75;24.67;;;;;;;;;;5082426;28;20045;-59
2024/02/29 07:40:12;;;;;;;75.97;26.92;;;;;;;;;;5073117;28;20067;-59
2024/02/29 07:42:41;;;;;;;78.80;25.92;;;;;;;;;;5075948;28;20039;-59
2024/02/29 07:45:08;;;;;;;80.68;25.88;;;;;;;;;;5071239;28;20390;-59
2024/02/29 07:47:34;;;;;;;74.47;24.52;;;;;;;;;;5076103;28;20066;-59
2024/02/29 07:50:03;;;;;;;77.60;24.00;;;;;;;;;;5082968;28;20044;-59
2024/02/29 07:52:29;;;;;;;75.43;23.45;;;;;;;;;;5079167;28;20037;-59
2024/02/29 07:54:55;;;;;;;78.45;24.50;;;;;;;;;;5084093;28;20035;-60
2024/02/29 07:57:21;;;;;;;77.25;25.27;;;;;;;;;;5076209;28;20052;-59
2024/02/29 07:59:47;;;;;;;79.28;25.60;;;;;;;;;;5080015;28;20429;-59
2024/02/29 08:02:13;;;;;;;78.00;26.67;;;;;;;;;;5080016;28;20035;-58
2024/02/29 08:04:39;;;;;;;75.90;26.88;;;;;;;;;;5084076;28;20036;-59
2024/02/29 08:07:10;;;;;;;77.22;28.42;;;;;;;;;;5082284;28;20047;-59
2024/02/29 08:09:37;;;;;;;78.30;27.02;;;;;;;;;;5083309;28;20052;-59
2024/02/29 08:12:03;;;;;;;89.07;30.05;;;;;;;;;;5078342;28;20041;-59
2024/02/29 08:14:29;;;;;;;79.00;29.00;;;;;;;;;;5076598;28;20044;-59
2024/02/29 08:16:55;;;;;;;91.57;31.13;;;;;;;;;;5076933;28;20432;-58
2024/02/29 08:19:23;;;;;;;92.72;31.67;;;;;;;;;;5078687;28;20450;-59
2024/02/29 08:21:49;;;;;;;92.72;32.28;;;;;;;;;;5063113;28;20039;-60
2024/02/29 08:24:16;;;;;;;97.15;33.28;;;;;;;;;;5080853;28;20037;-60
2024/02/29 08:26:43;;;;;;;95.10;31.65;;;;;;;;;;5083156;28;20058;-59
2024/02/29 08:29:13;;;;;;;95.43;31.95;;;;;;;;;;5081548;28;20036;-58
2024/02/29 08:31:40;;;;;;;;;;;;;;;;;;5081223;28;20497;-59
2024/02/29 08:34:06;;;;;;;77.10;26.65;;;;;;;;;;5081048;28;20273;-59
2024/02/29 08:36:32;;;;;;;73.90;26.55;;;;;;;;;;5074182;28;20047;-59
2024/02/29 08:38:58;;;;;;;76.35;25.45;;;;;;;;;;5086883;28;20047;-59
2024/02/29 08:41:25;;;;;;;82.82;26.45;;;;;;;;;;5072760;28;20032;-59
2024/02/29 08:43:52;;;;;;;79.43;26.48;;;;;;;;;;5070954;28;20137;-60
2024/02/29 08:46:18;;;;;;;73.18;25.17;;;;;;;;;;5078544;28;20043;-59
2024/02/29 08:48:45;;;;;;;71.22;24.27;;;;;;;;;;5076318;28;20044;-59
2024/02/29 08:51:12;;;;;;;78.85;25.60;;;;;;;;;;5075732;28;20032;-58
2024/02/29 08:53:38;;;;;;;72.22;25.15;;;;;;;;;;5080293;28;20032;-59
2024/02/29 08:56:04;;;;;;;74.72;25.90;;;;;;;;;;5080225;28;20497;-59
2024/02/29 08:58:30;;;;;;;73.50;26.15;;;;;;;;;;5077325;28;20032;-59
2024/02/29 09:00:56;;;;;;;72.82;26.40;;;;;;;;;;5078451;28;20382;-59
2024/02/29 09:03:22;;;;;;;77.45;25.67;;;;;;;;;;5088015;28;20032;-59
2024/02/29 09:05:50;;;;;;;72.05;24.50;;;;;;;;;;5077525;28;20055;-59
2024/02/29 09:08:17;;;;;;;68.72;24.38;;;;;;;;;;5080623;28;20048;-60
2024/02/29 09:10:43;;;;;;;73.30;25.92;;;;;;;;;;5078307;28;20064;-60
2024/02/29 09:13:09;;;;;;;74.18;25.00;;;;;;;;;;5080072;28;20039;-60
2024/02/29 09:15:37;;;;;;;77.55;26.30;;;;;;;;;;5076497;28;20052;-60
2024/02/29 09:18:04;;;;;;;83.53;26.50;;;;;;;;;;5078438;28;20050;-58
2024/02/29 09:20:30;;;;;;;72.00;26.33;;;;;;;;;;5079161;28;20048;-59
2024/02/29 09:22:56;;;;;;;74.63;25.02;;;;;;;;;;5080431;28;20035;-60
2024/02/29 09:25:22;;;;;;;68.18;25.80;;;;;;;;;;5081823;28;20424;-60
2024/02/29 09:27:49;;;;;;;66.60;24.02;;;;;;;;;;5088587;28;20055;-60
2024/02/29 09:30:16;;;;;;;71.43;25.60;;;;;;;;;;5084948;28;20059;-59
2024/02/29 09:32:43;;;;;;;70.05;24.33;;;;;;;;;;5107104;28;20055;-60
2024/02/29 09:35:10;;;;;;;65.28;25.65;;;;;;;;;;5087785;28;20055;-59
2024/02/29 09:37:36;;;;;;;69.38;26.17;;;;;;;;;;5083827;28;20032;-58
2024/02/29 09:40:02;;;;;;;75.35;26.33;;;;;;;;;;5082967;28;20032;-58
2024/02/29 09:42:31;;;;;;;72.75;26.30;;;;;;;;;;5089846;28;20480;-58
2024/02/29 09:44:57;;;;;;;72.95;26.83;;;;;;;;;;5082333;28;20032;-59
2024/02/29 09:47:24;;;;;;;70.35;26.08;;;;;;;;;;5084268;28;20417;-58
2024/02/29 09:49:50;;;;;;;69.10;25.98;;;;;;;;;;5087991;28;20409;-59
2024/02/29 09:52:17;;;;;;;71.15;25.25;;;;;;;;;;5079907;28;20044;-59
2024/02/29 09:54:46;;;;;;;69.97;25.83;;;;;;;;;;5080075;28;20095;-57
2024/02/29 09:57:13;;;;;;;67.50;24.88;;;;;;;;;;5078802;28;20044;-59
2024/02/29 09:59:42;;;;;;;64.07;24.63;;;;;;;;;;5078960;28;20151;-59
2024/02/29 10:02:17;;;;;;;67.13;25.38;;;;;;;;;;5084081;28;20530;-60
2024/02/29 10:04:43;;;;;;;62.13;24.83;;;;;;;;;;5080013;28;20048;-59
2024/02/29 10:07:10;;;;;;;65.40;24.45;;;;;;;;;;5087580;28;20075;-58
2024/02/29 10:09:36;;;;;;;66.57;24.92;;;;;;;;;;5084583;28;20115;-59
2024/02/29 10:12:04;;;;;;;60.78;23.20;;;;;;;;;;5080228;28;20051;-59
2024/02/29 10:14:30;;;;;;;60.85;23.27;;;;;;;;;;5082415;28;20047;-59
2024/02/29 10:16:57;;;;;;;65.25;24.77;;;;;;;;;;5079497;28;20032;-59
2024/02/29 10:19:23;;;;;;;60.97;24.15;;;;;;;;;;5084772;28;20528;-59
2024/02/29 10:21:52;;;;;;;64.90;25.95;;;;;;;;;;5088226;28;20055;-59
2024/02/29 10:24:19;;;;;;;58.50;24.48;;;;;;;;;;5082613;28;20052;-59
2024/02/29 10:26:46;;;;;;;56.17;24.05;;;;;;;;;;5085738;28;20039;-59
2024/02/29 10:29:16;;;;;;;57.47;24.83;;;;;;;;;;5085563;28;20051;-59
2024/02/29 10:31:42;;;;;;;63.03;26.00;;;;;;;;;;5082127;28;20234;-59
2024/02/29 10:34:12;;;;;;;58.47;24.50;;;;;;;;;;5079807;28;20047;-59
2024/02/29 10:36:39;;;;;;;56.55;25.00;;;;;;;;;;5082725;28;20047;-60
2024/02/29 10:39:06;;;;;;;59.70;25.02;;;;;;;;;;5075135;28;20060;-59
2024/02/29 10:41:32;;;;;;;59.22;24.52;;;;;;;;;;5083858;28;20055;-60
2024/02/29 10:44:03;;;;;;;60.13;25.23;;;;;;;;;;5088118;28;20059;-58
2024/02/29 10:46:31;;;;;;;62.17;24.90;;;;;;;;;;5077928;28;20055;-60
2024/02/29 10:49:11;;;;;;;61.08;24.63;;;;;;;;;;5073019;28;20055;-60
2024/02/29 10:51:51;;;;;;;56.05;24.67;;;;;;;;;;5078286;28;20051;-60
2024/02/29 10:54:19;;;;;;;49.95;22.05;;;;;;;;;;5082409;28;20047;-59
2024/02/29 10:56:48;;;;;;;46.08;20.92;;;;;;;;;;5078902;28;20464;-59
2024/02/29 10:59:18;;;;;;;54.38;22.33;;;;;;;;;;5083679;28;20040;-60
2024/02/29 11:01:47;;;;;;;48.25;21.98;;;;;;;;;;5081620;28;20040;-60
2024/02/29 11:04:16;;;;;;;48.78;22.30;;;;;;;;;;5084560;28;20067;-59
2024/02/29 11:06:45;;;;;;;49.92;23.58;;;;;;;;;;5080278;28;20052;-59
2024/02/29 11:09:14;;;;;;;44.88;21.02;;;;;;;;;;5079098;28;20468;-60
2024/02/29 11:11:42;;;;;;;43.58;21.02;;;;;;;;;;5078916;28;20044;-59
2024/02/29 11:14:12;;;;;;;43.70;21.08;;;;;;;;;;5082979;28;20462;-60
2024/02/29 11:16:45;;;;;;;47.33;20.98;;;;;;;;;;5082303;28;20602;-59
2024/02/29 11:19:17;;;;;;;41.28;20.65;;;;;;;;;;5079791;28;20029;-60
2024/02/29 11:21:44;;;;;;;41.65;19.65;;;;;;;;;;5081511;28;20416;-60
2024/02/29 11:24:21;;;;;;;40.38;19.65;;;;;;;;;;5076614;28;20425;-60
2024/02/29 11:26:55;;;;;;;44.22;20.35;;;;;;;;;;5083974;28;20036;-59
2024/02/29 11:29:24;;;;;;;42.28;20.63;;;;;;;;;;5082205;28;20048;-59
2024/02/29 11:31:55;;;;;;;39.83;19.65;;;;;;;;;;5077394;28;20056;-59
2024/02/29 11:34:21;;;;;;;41.42;20.02;;;;;;;;;;5080639;28;20060;-57
2024/02/29 11:36:49;;;;;;;39.78;20.05;;;;;;;;;;5077407;28;20032;-59
2024/02/29 11:39:23;;;;;;;42.78;19.58;;;;;;;;;;5077896;28;20493;-59
2024/02/29 11:41:50;;;;;;;41.90;20.20;;;;;;;;;;5072527;28;20052;-59
2024/02/29 11:44:16;;;;;;;38.63;18.20;;;;;;;;;;5076635;28;20043;-59
2024/02/29 11:46:47;;;;;;;36.83;19.20;;;;;;;;;;5080780;28;20036;-59
2024/02/29 11:49:17;;;;;;;36.55;18.17;;;;;;;;;;5077243;28;20037;-59
2024/02/29 11:51:44;;;;;;;33.95;17.02;;;;;;;;;;5080105;28;20036;-59
2024/02/29 11:54:12;;;;;;;36.90;18.85;;;;;;;;;;5078053;28;20055;-60
2024/02/29 11:56:39;;;;;;;38.05;18.50;;;;;;;;;;5082508;28;20048;-60
2024/02/29 11:59:06;;;;;;;38.67;19.00;;;;;;;;;;5077507;28;20048;-59
2024/02/29 12:01:35;;;;;;;34.10;17.80;;;;;;;;;;5089275;28;20036;-61
2024/02/29 12:04:03;;;;;;;35.33;17.35;;;;;;;;;;5080149;28;20052;-60
2024/02/29 12:06:29;;;;;;;32.75;17.15;;;;;;;;;;5077090;28;20586;-60
2024/02/29 12:08:59;;;;;;;34.75;16.83;;;;;;;;;;5078495;28;20047;-60
2024/02/29 12:11:25;;;;;;;31.60;16.70;;;;;;;;;;5077658;28;20405;-61
2024/02/29 12:13:51;;;;;;;34.08;17.42;;;;;;;;;;5079343;28;20047;-59
2024/02/29 12:16:18;;;;;;;28.50;15.98;;;;;;;;;;5078973;28;20040;-59
2024/02/29 12:18:45;;;;;;;32.20;17.00;;;;;;;;;;5079544;28;20130;-60
2024/02/29 12:21:11;;;;;;;31.48;16.23;;;;;;;;;;5075642;28;20079;-60
2024/02/29 12:23:40;;;;;;;30.90;16.55;;;;;;;;;;5078532;28;20053;-60
2024/02/29 12:26:13;;;;;;;30.63;16.25;;;;;;;;;;5076065;28;20448;-59
2024/02/29 12:28:40;;;;;;;30.40;15.90;;;;;;;;;;5078515;28;20048;-59
2024/02/29 12:31:08;;;;;;;29.95;16.35;;;;;;;;;;5079299;28;20209;-58
2024/02/29 12:33:38;;;;;;;28.30;15.63;;;;;;;;;;5082725;28;20524;-59
2024/02/29 12:36:06;;;;;;;31.33;17.20;;;;;;;;;;5073265;28;20055;-60
2024/02/29 12:38:32;;;;;;;30.58;16.60;;;;;;;;;;5069279;28;20052;-59
2024/02/29 12:40:59;;;;;;;28.35;16.33;;;;;;;;;;5074376;28;20032;-60
2024/02/29 12:43:26;;;;;;;27.17;15.77;;;;;;;;;;5077997;28;20048;-60
2024/02/29 12:45:52;;;;;;;29.98;16.33;;;;;;;;;;5078236;28;20056;-59
2024/02/29 12:48:18;;;;;;;27.63;15.93;;;;;;;;;;5071629;28;20516;-60
2024/02/29 12:50:44;;;;;;;30.45;17.35;;;;;;;;;;5073413;28;20056;-59
2024/02/29 12:53:10;;;;;;;31.30;16.30;;;;;;;;;;5081050;28;20059;-61
2024/02/29 12:55:37;;;;;;;29.33;17.25;;;;;;;;;;5081864;28;20440;-59
2024/02/29 12:58:04;;;;;;;28.38;16.83;;;;;;;;;;5076047;28;20042;-59
2024/02/29 13:00:30;;;;;;;26.40;15.32;;;;;;;;;;5079559;28;20401;-59
2024/02/29 13:02:56;;;;;;;28.42;16.48;;;;;;;;;;5079303;28;20050;-60
2024/02/29 13:05:22;;;;;;;26.35;15.75;;;;;;;;;;5082439;28;20036;-59
2024/02/29 13:07:49;;;;;;;28.65;16.63;;;;;;;;;;5083659;28;20428;-59
2024/02/29 13:10:15;;;;;;;27.45;16.30;;;;;;;;;;5075738;28;20036;-60
2024/02/29 13:12:42;;;;;;;24.38;14.43;;;;;;;;;;5079201;28;20039;-62
2024/02/29 13:15:08;;;;;;;24.00;14.63;;;;;;;;;;5073963;28;20063;-61
2024/02/29 13:17:35;;;;;;;25.73;14.70;;;;;;;;;;5079503;28;20033;-61
2024/02/29 13:20:01;;;;;;;22.90;14.27;;;;;;;;;;5076617;28;20032;-60
2024/02/29 13:22:27;;;;;;;25.55;15.32;;;;;;;;;;5077150;28;20061;-61
2024/02/29 13:24:53;;;;;;;21.23;13.43;;;;;;;;;;5080387;28;20416;-62
2024/02/29 13:27:19;;;;;;;24.35;14.13;;;;;;;;;;5082412;28;20059;-60
2024/02/29 13:29:46;;;;;;;23.55;13.65;;;;;;;;;;5083232;28;20051;-61
2024/02/29 13:32:12;;;;;;;22.90;13.32;;;;;;;;;;5072761;28;20102;-60
2024/02/29 13:34:38;;;;;;;25.27;15.02;;;;;;;;;;5076045;28;20047;-61
2024/02/29 13:37:04;;;;;;;23.75;13.90;;;;;;;;;;5073176;28;20043;-61
2024/02/29 13:39:30;;;;;;;30.95;16.77;;;;;;;;;;5073271;28;20036;-60
2024/02/29 13:41:56;;;;;;;24.23;14.98;;;;;;;;;;5078950;28;20048;-60
2024/02/29 13:44:23;;;;;;;32.70;15.35;;;;;;;;;;5080814;28;20445;-60
2024/02/29 13:46:49;;;;;;;24.88;14.30;;;;;;;;;;5079095;28;20037;-61
2024/02/29 13:49:15;;;;;;;23.52;14.57;;;;;;;;;;5080499;28;20056;-61
2024/02/29 13:51:41;;;;;;;21.50;13.43;;;;;;;;;;5078553;28;20044;-62
2024/02/29 13:54:07;;;;;;;22.17;14.20;;;;;;;;;;5075964;28;20047;-62
2024/02/29 13:56:33;;;;;;;23.75;13.70;;;;;;;;;;5078911;28;20047;-63
2024/02/29 13:59:00;;;;;;;23.45;14.02;;;;;;;;;;5077429;28;20040;-60
2024/02/29 14:01:26;;;;;;;22.70;14.05;;;;;;;;;;5077986;28;20056;-60
2024/02/29 14:03:52;;;;;;;24.98;14.90;;;;;;;;;;5079249;28;20484;-60
2024/02/29 14:06:18;;;;;;;21.88;13.70;;;;;;;;;;5073478;28;20036;-60
2024/02/29 14:08:45;;;;;;;23.45;13.50;;;;;;;;;;5076567;28;20048;-60
2024/02/29 14:11:11;;;;;;;22.63;14.18;;;;;;;;;;5074725;28;20068;-61
2024/02/29 14:13:37;;;;;;;24.05;14.82;;;;;;;;;;5082057;28;20055;-60
2024/02/29 14:16:05;;;;;;;23.38;13.93;;;;;;;;;;5080214;28;20047;-60
2024/02/29 14:18:33;;;;;;;21.10;13.60;;;;;;;;;;5078636;28;20043;-61